Villa El Recreo, Puerto Rico
Current Conditions -  °F | °C
As of 7:53 PM on Tuesday 21 Oct 2014 (Local Time) from TJNR Reporting Station
Broken Clouds Broken Clouds  
Wind Chill: 82°   Ceiling: 7500
Heat Index: 89°   Visibility: 10mi
Dew Point: 75°   Wind: 12mph
Humidity: 79%   Direction: 90°E
Pressure: 29.96"   Gusts: NA
Location:  18.0547°N, 65.8738°W
Report Text: TJNR 212353Z AUTO 09010KT 10SM FEW048 SCT060 BKN075 28/24 A2996 RMK AO2 SLP145 T02780239 10317 20272 53013
Loading
Personal Weather Stations






























Interactive Weather Map New forecast layout! Learn more

10-Day Weather Forecast

Advertisements
Track Severe Weather on mobile